Nearby METAR Reports

 

K9MN - St Mary Hospital, Minnesota, USA
Distance from station: SW 3mi, 4km
Updated: 07/19/2019 2:35pm
Partly cloudy
Partly cloudy
 Wind from S
Wind: S 12 mph , 19 km/h, Gust: 20 mph , 31 km/h
Temperature: 91°F , 33°C
Heat Index: 107°F , 42°C
Dew Point: 79°F , 26°C
Humidity: 67%
Barometer: 29.73 inHg , 1006.8 hPa
Clouds: Partly cloudy
Visibility: 10 miles , 16 km
Cloud details: Partly cloudy 2600 ft
Partly cloudy 3200 ft
2019/07/19 19:35 K9MN 191935Z AUTO 17010G17KT 10SM SCT026 SCT032 33/26 A2973 RMK AO1 T03260255
KRST - Rochester, Minnesota, USA
Distance from station: SSW 10mi, 16km
Updated: 07/19/2019 2:28pm
Few Clouds
Few Clouds
 Wind from SSE
Wind: SSE 16 mph , 26 km/h
Temperature: 90°F , 32°C
Heat Index: 107°F , 42°C
Dew Point: 79°F , 26°C
Humidity: 71%
Barometer: 29.74 inHg , 1007.1 hPa
Clouds: Few Clouds
Visibility: 10 miles , 16 km
Cloud details: Few Clouds 2600 ft
2019/07/19 19:28 KRST 191928Z 16014KT 10SM FEW026 32/26 A2974 RMK AO2 T03170261
 
KTOB - Dodge Center, Minnesota, USA
Distance from station: W 19mi, 30km
Updated: 07/19/2019 2:37pm
Clear
Clear
 Wind from SSE
Wind: SSE 18 mph , 30 km/h, Gust: 25 mph , 41 km/h
Temperature: 90°F , 32°C
Heat Index: 107°F , 42°C
Dew Point: 79°F , 26°C
Humidity: 71%
Barometer: 29.71 inHg , 1006.1 hPa
Clouds: Clear
Visibility: 10 miles , 16 km
2019/07/19 19:37 KTOB 191937Z AUTO 16016G22KT 10SM CLR 32/26 A2971 RMK AO2
KFKA - Preston, Minnesota, USA
Distance from station: SSE 28mi, 45km
Updated: 07/19/2019 2:35pm
Partly cloudy
Partly cloudy
 Wind from S
Wind: S 16 mph , 26 km/h, Gust: 21 mph , 33 km/h
Temperature: 90°F , 32°C
Heat Index: 107°F , 42°C
Dew Point: 79°F , 26°C
Humidity: 71%
Barometer: 29.75 inHg , 1007.5 hPa
Clouds: Partly cloudy
Visibility: 10 miles , 16 km
Cloud details: Partly cloudy 2200 ft
2019/07/19 19:35 KFKA 191935Z AUTO 18014G18KT 10SM SCT022 32/26 A2975 RMK AO2 T03220260
 
KAUM - Austin Muni, Minnesota, USA
Distance from station: SW 35mi, 57km
Updated: 07/19/2019 2:35pm
Clear
Clear
 Wind from S
Wind: S 9 mph , 15 km/h, Gust: 16 mph , 26 km/h
Temperature: 93°F , 34°C
Heat Index: 103°F , 39°C
Dew Point: 73°F , 23°C
Humidity: 53%
Barometer: 29.71 inHg , 1006.1 hPa
Clouds: Clear
Visibility: 10 miles , 16 km
2019/07/19 19:35 KAUM 191935Z AUTO 17008G14KT 10SM CLR 34/23 A2971 RMK AO2
KONA - Winona Muni, Minnesota, USA
Distance from station: E 37mi, 59km
Updated: 07/19/2019 1:55pm
Mostly cloudy
Mostly cloudy
 Wind from SE
Wind: SE 7 mph , 11 km/h
Temperature: 90°F , 32°C
Heat Index: 107°F , 42°C
Dew Point: 79°F , 26°C
Humidity: 71%
Barometer: 29.72 inHg , 1006.4 hPa
Clouds: Mostly cloudy
Visibility: 10 miles , 16 km
Cloud details: Mostly cloudy 2900 ft
2019/07/19 18:55 KONA 191855Z AUTO 13006KT 10SM BKN029 32/26 A2972 RMK AO2
 
KRGK - Red Wing, Minnesota, USA
Distance from station: N 38mi, 61km
Updated: 07/19/2019 2:36pm
Partly cloudy
Partly cloudy
 Wind from ESE
Wind: ESE 13 mph , 20 km/h, Gust: 17 mph , 28 km/h
Temperature: 91°F , 33°C
Heat Index: 102°F , 39°C
Dew Point: 75°F , 24°C
Humidity: 59%
Barometer: 29.67 inHg , 1004.7 hPa
Clouds: Partly cloudy
Visibility: 10 miles , 16 km
Cloud details: Partly cloudy 2900 ft
Partly cloudy 6000 ft
2019/07/19 19:36 KRGK 191936Z AUTO 12011G15KT 10SM SCT029 SCT060 33/24 A2967 RMK AO2
KOWA - Owatonna, Minnesota, USA
Distance from station: W 41mi, 65km
Updated: 07/19/2019 1:01pm
NOT Current
Partly cloudy
Partly cloudy
 Wind from S
Wind: S 15 mph , 24 km/h, Gust: 22 mph , 35 km/h
Temperature: 90°F , 32°C
Heat Index: 109°F , 43°C
Dew Point: 81°F , 27°C
Humidity: 75%
Barometer: 29.70 inHg , 1005.8 hPa
Clouds: Partly cloudy
Visibility: 10 miles , 16 km
Cloud details: Partly cloudy 2200 ft
Partly cloudy 2900 ft
2019/07/19 18:01 KOWA 191801Z AUTO 18013G19KT 10SM SCT022 SCT029 32/27 A2970 RMK AO2
 
KSYN - Stanton, Minnesota, USA
Distance from station: NW 42mi, 68km
Updated: 07/19/2019 2:35pm
Partly cloudy
Partly cloudy
 Wind from SSE
Wind: SSE 14 mph , 22 km/h, Gust: 18 mph , 30 km/h
Temperature: 91°F , 33°C
Heat Index: 110°F , 43°C
Dew Point: 81°F , 27°C
Humidity: 71%
Barometer: 29.65 inHg , 1004.1 hPa
Clouds: Partly cloudy
Visibility: 10 miles , 16 km
Cloud details: Partly cloudy 2800 ft
Partly cloudy 3400 ft
2019/07/19 19:35 KSYN 191935Z AUTO 16012G16KT 10SM SCT028 SCT034 33/27 A2965 RMK AO2 T03330266
KFBL - Faribault Muni, Minnesota, USA
Distance from station: WNW 48mi, 77km
Updated: 09/20/2018 6:41pm
NOT Current

 Wind from SSE
Wind: SSE 18 mph , 30 km/h, Gust: 45 mph , 72 km/h
Visibility: 4 miles , 6 km
2018/09/20 23:41 KFBL 202341Z AUTO 15016G39KT 122V182 4SM +VCTSRA SCT010 BKN070 21/21 A2951 RMK AO2 P0008 LTG DSNT ALQDS